sensor_id;sensor_type;location;lat;lon;timestamp;P1;durP1;ratioP1;P2;durP2;ratioP2
34928;SDS011;21133;48.048;7.724;2024-03-23T00:51:49;1.63;;;1.20;;
34928;SDS011;21133;48.048;7.724;2024-03-23T00:54:15;2.00;;;1.00;;
34928;SDS011;21133;48.048;7.724;2024-03-23T00:56:41;0.87;;;0.87;;
34928;SDS011;21133;48.048;7.724;2024-03-23T00:59:07;1.30;;;1.30;;
34928;SDS011;21133;48.048;7.724;2024-03-23T01:01:33;1.20;;;1.20;;
34928;SDS011;21133;48.048;7.724;2024-03-23T01:03:59;1.60;;;1.13;;
34928;SDS011;21133;48.048;7.724;2024-03-23T01:06:25;1.20;;;1.10;;
34928;SDS011;21133;48.048;7.724;2024-03-23T01:08:51;1.17;;;1.17;;
34928;SDS011;21133;48.048;7.724;2024-03-23T01:11:17;1.10;;;1.10;;
34928;SDS011;21133;48.048;7.724;2024-03-23T01:13:43;1.20;;;1.07;;
34928;SDS011;21133;48.048;7.724;2024-03-23T01:16:09;1.30;;;1.23;;
34928;SDS011;21133;48.048;7.724;2024-03-23T01:18:35;3.83;;;1.37;;
34928;SDS011;21133;48.048;7.724;2024-03-23T01:21:01;1.37;;;0.93;;
34928;SDS011;21133;48.048;7.724;2024-03-23T01:23:27;1.47;;;1.37;;
34928;SDS011;21133;48.048;7.724;2024-03-23T01:25:53;0.93;;;0.93;;
34928;SDS011;21133;48.048;7.724;2024-03-23T01:28:19;1.00;;;1.00;;
34928;SDS011;21133;48.048;7.724;2024-03-23T01:30:45;1.10;;;1.10;;
34928;SDS011;21133;48.048;7.724;2024-03-23T01:33:11;2.70;;;1.10;;
34928;SDS011;21133;48.048;7.724;2024-03-23T01:35:38;1.00;;;1.00;;
34928;SDS011;21133;48.048;7.724;2024-03-23T01:38:04;1.60;;;1.47;;
34928;SDS011;21133;48.048;7.724;2024-03-23T01:40:30;1.50;;;1.10;;
34928;SDS011;21133;48.048;7.724;2024-03-23T01:45:24;1.57;;;1.57;;
34928;SDS011;21133;48.048;7.724;2024-03-23T01:47:51;1.30;;;1.30;;
34928;SDS011;21133;48.048;7.724;2024-03-23T01:50:17;3.43;;;1.40;;
34928;SDS011;21133;48.048;7.724;2024-03-23T01:52:43;0.73;;;0.73;;
34928;SDS011;21133;48.048;7.724;2024-03-23T01:55:09;1.20;;;1.20;;
34928;SDS011;21133;48.048;7.724;2024-03-23T01:57:36;3.00;;;1.20;;
34928;SDS011;21133;48.048;7.724;2024-03-23T02:00:02;2.50;;;1.73;;
34928;SDS011;21133;48.048;7.724;2024-03-23T02:02:28;1.17;;;1.17;;
34928;SDS011;21133;48.048;7.724;2024-03-23T02:04:54;1.75;;;1.60;;
34928;SDS011;21133;48.048;7.724;2024-03-23T02:07:20;1.60;;;1.60;;
34928;SDS011;21133;48.048;7.724;2024-03-23T02:09:46;2.60;;;2.03;;
34928;SDS011;21133;48.048;7.724;2024-03-23T02:12:11;1.00;;;1.00;;
34928;SDS011;21133;48.048;7.724;2024-03-23T02:14:37;1.80;;;1.03;;
34928;SDS011;21133;48.048;7.724;2024-03-23T02:17:03;1.10;;;1.10;;
34928;SDS011;21133;48.048;7.724;2024-03-23T02:19:30;1.17;;;1.17;;
34928;SDS011;21133;48.048;7.724;2024-03-23T02:21:55;1.13;;;1.13;;
34928;SDS011;21133;48.048;7.724;2024-03-23T02:24:21;1.37;;;1.30;;
34928;SDS011;21133;48.048;7.724;2024-03-23T02:26:47;1.63;;;1.53;;
34928;SDS011;21133;48.048;7.724;2024-03-23T02:29:13;1.70;;;1.70;;
34928;SDS011;21133;48.048;7.724;2024-03-23T02:31:39;7.13;;;1.30;;
34928;SDS011;21133;48.048;7.724;2024-03-23T02:34:05;1.27;;;1.27;;
34928;SDS011;21133;48.048;7.724;2024-03-23T02:36:31;2.17;;;1.10;;
34928;SDS011;21133;48.048;7.724;2024-03-23T02:38:57;1.37;;;1.27;;
34928;SDS011;21133;48.048;7.724;2024-03-23T02:41:23;1.20;;;1.20;;
34928;SDS011;21133;48.048;7.724;2024-03-23T02:43:49;1.50;;;1.40;;
34928;SDS011;21133;48.048;7.724;2024-03-23T02:46:16;3.23;;;1.53;;
34928;SDS011;21133;48.048;7.724;2024-03-23T02:48:41;1.47;;;1.47;;
34928;SDS011;21133;48.048;7.724;2024-03-23T02:51:08;2.10;;;1.50;;
34928;SDS011;21133;48.048;7.724;2024-03-23T02:53:34;1.53;;;1.53;;
34928;SDS011;21133;48.048;7.724;2024-03-23T02:56:00;8.60;;;2.50;;
34928;SDS011;21133;48.048;7.724;2024-03-23T02:58:26;1.70;;;1.60;;
34928;SDS011;21133;48.048;7.724;2024-03-23T03:00:52;1.87;;;1.23;;
34928;SDS011;21133;48.048;7.724;2024-03-23T03:03:18;1.23;;;1.23;;
34928;SDS011;21133;48.048;7.724;2024-03-23T03:05:44;1.67;;;1.47;;
34928;SDS011;21133;48.048;7.724;2024-03-23T03:08:10;1.80;;;1.70;;
34928;SDS011;21133;48.048;7.724;2024-03-23T03:10:36;1.10;;;1.10;;
34928;SDS011;21133;48.048;7.724;2024-03-23T03:13:02;1.47;;;1.37;;
34928;SDS011;21133;48.048;7.724;2024-03-23T03:15:28;1.77;;;1.70;;
34928;SDS011;21133;48.048;7.724;2024-03-23T03:17:54;12.00;;;1.47;;
34928;SDS011;21133;48.048;7.724;2024-03-23T03:20:20;1.50;;;1.40;;
34928;SDS011;21133;48.048;7.724;2024-03-23T03:22:48;3.20;;;1.50;;
34928;SDS011;21133;48.048;7.724;2024-03-23T03:25:14;2.63;;;1.90;;
34928;SDS011;21133;48.048;7.724;2024-03-23T03:27:40;3.27;;;1.50;;
34928;SDS011;21133;48.048;7.724;2024-03-23T03:30:06;2.40;;;1.60;;
34928;SDS011;21133;48.048;7.724;2024-03-23T03:32:33;2.93;;;1.40;;
34928;SDS011;21133;48.048;7.724;2024-03-23T03:34:59;1.70;;;1.70;;
34928;SDS011;21133;48.048;7.724;2024-03-23T03:37:25;1.60;;;1.50;;
34928;SDS011;21133;48.048;7.724;2024-03-23T03:39:51;2.80;;;2.70;;
34928;SDS011;21133;48.048;7.724;2024-03-23T03:42:17;2.23;;;1.70;;
34928;SDS011;21133;48.048;7.724;2024-03-23T03:44:43;1.90;;;1.90;;
34928;SDS011;21133;48.048;7.724;2024-03-23T03:47:09;2.43;;;2.13;;
34928;SDS011;21133;48.048;7.724;2024-03-23T03:49:35;9.77;;;1.90;;
34928;SDS011;21133;48.048;7.724;2024-03-23T03:52:01;2.97;;;1.67;;
34928;SDS011;21133;48.048;7.724;2024-03-23T03:54:27;1.80;;;1.80;;
34928;SDS011;21133;48.048;7.724;2024-03-23T03:56:53;1.57;;;1.57;;
34928;SDS011;21133;48.048;7.724;2024-03-23T03:59:19;2.27;;;1.50;;
34928;SDS011;21133;48.048;7.724;2024-03-23T04:01:45;4.13;;;2.23;;
34928;SDS011;21133;48.048;7.724;2024-03-23T04:04:11;6.17;;;4.10;;
34928;SDS011;21133;48.048;7.724;2024-03-23T04:06:38;1.70;;;1.63;;
34928;SDS011;21133;48.048;7.724;2024-03-23T04:09:04;5.83;;;1.87;;
34928;SDS011;21133;48.048;7.724;2024-03-23T04:11:31;1.67;;;1.67;;
34928;SDS011;21133;48.048;7.724;2024-03-23T04:13:57;1.80;;;1.80;;
34928;SDS011;21133;48.048;7.724;2024-03-23T04:16:31;1.37;;;1.37;;
34928;SDS011;21133;48.048;7.724;2024-03-23T04:18:57;1.83;;;1.80;;
34928;SDS011;21133;48.048;7.724;2024-03-23T04:21:24;1.60;;;1.60;;
34928;SDS011;21133;48.048;7.724;2024-03-23T04:23:50;1.53;;;1.53;;
34928;SDS011;21133;48.048;7.724;2024-03-23T04:26:16;1.73;;;1.73;;
34928;SDS011;21133;48.048;7.724;2024-03-23T04:28:42;2.17;;;1.87;;
34928;SDS011;21133;48.048;7.724;2024-03-23T04:31:08;2.03;;;2.03;;
34928;SDS011;21133;48.048;7.724;2024-03-23T04:33:35;1.60;;;1.50;;
34928;SDS011;21133;48.048;7.724;2024-03-23T04:36:01;6.30;;;1.60;;
34928;SDS011;21133;48.048;7.724;2024-03-23T04:38:27;2.27;;;2.20;;
34928;SDS011;21133;48.048;7.724;2024-03-23T04:40:56;1.70;;;1.70;;
34928;SDS011;21133;48.048;7.724;2024-03-23T04:43:22;1.93;;;1.93;;
34928;SDS011;21133;48.048;7.724;2024-03-23T04:45:48;2.17;;;2.17;;
34928;SDS011;21133;48.048;7.724;2024-03-23T04:48:14;2.30;;;2.20;;
34928;SDS011;21133;48.048;7.724;2024-03-23T04:50:40;5.03;;;2.30;;
34928;SDS011;21133;48.048;7.724;2024-03-23T04:53:06;2.17;;;2.07;;
34928;SDS011;21133;48.048;7.724;2024-03-23T04:55:32;2.40;;;2.37;;
34928;SDS011;21133;48.048;7.724;2024-03-23T04:57:58;2.20;;;2.20;;
34928;SDS011;21133;48.048;7.724;2024-03-23T05:00:25;3.40;;;2.57;;
34928;SDS011;21133;48.048;7.724;2024-03-23T05:02:51;2.23;;;2.13;;
34928;SDS011;21133;48.048;7.724;2024-03-23T05:05:18;2.10;;;2.00;;
34928;SDS011;21133;48.048;7.724;2024-03-23T05:07:44;2.40;;;2.30;;
34928;SDS011;21133;48.048;7.724;2024-03-23T05:10:10;7.10;;;2.07;;
34928;SDS011;21133;48.048;7.724;2024-03-23T05:12:39;1.90;;;1.80;;
34928;SDS011;21133;48.048;7.724;2024-03-23T05:15:05;2.40;;;1.77;;
34928;SDS011;21133;48.048;7.724;2024-03-23T05:17:32;1.70;;;1.70;;
34928;SDS011;21133;48.048;7.724;2024-03-23T05:19:58;6.73;;;1.80;;
34928;SDS011;21133;48.048;7.724;2024-03-23T05:22:24;3.80;;;2.27;;
34928;SDS011;21133;48.048;7.724;2024-03-23T05:24:52;1.50;;;1.40;;
34928;SDS011;21133;48.048;7.724;2024-03-23T05:27:18;1.90;;;1.90;;
34928;SDS011;21133;48.048;7.724;2024-03-23T05:29:44;4.40;;;1.40;;
34928;SDS011;21133;48.048;7.724;2024-03-23T05:32:10;1.80;;;1.80;;
34928;SDS011;21133;48.048;7.724;2024-03-23T05:34:36;2.37;;;2.20;;
34928;SDS011;21133;48.048;7.724;2024-03-23T05:37:02;1.77;;;1.70;;
34928;SDS011;21133;48.048;7.724;2024-03-23T05:39:28;1.97;;;1.90;;
34928;SDS011;21133;48.048;7.724;2024-03-23T05:41:54;1.73;;;1.73;;
34928;SDS011;21133;48.048;7.724;2024-03-23T05:44:20;1.87;;;1.87;;
34928;SDS011;21133;48.048;7.724;2024-03-23T05:46:45;2.40;;;2.30;;
34928;SDS011;21133;48.048;7.724;2024-03-23T05:49:13;3.77;;;3.33;;
34928;SDS011;21133;48.048;7.724;2024-03-23T05:51:39;3.30;;;3.20;;
34928;SDS011;21133;48.048;7.724;2024-03-23T05:54:05;3.97;;;3.77;;
34928;SDS011;21133;48.048;7.724;2024-03-23T05:56:31;4.10;;;4.00;;
34928;SDS011;21133;48.048;7.724;2024-03-23T05:58:57;3.87;;;3.67;;
34928;SDS011;21133;48.048;7.724;2024-03-23T06:01:23;2.87;;;2.77;;
34928;SDS011;21133;48.048;7.724;2024-03-23T06:03:49;2.33;;;2.23;;
34928;SDS011;21133;48.048;7.724;2024-03-23T06:06:16;2.07;;;1.97;;
34928;SDS011;21133;48.048;7.724;2024-03-23T06:08:42;2.90;;;2.77;;
34928;SDS011;21133;48.048;7.724;2024-03-23T06:11:08;2.83;;;2.63;;
34928;SDS011;21133;48.048;7.724;2024-03-23T06:13:33;3.60;;;3.40;;
34928;SDS011;21133;48.048;7.724;2024-03-23T06:16:00;2.53;;;2.43;;
34928;SDS011;21133;48.048;7.724;2024-03-23T06:18:26;2.50;;;2.17;;
34928;SDS011;21133;48.048;7.724;2024-03-23T06:20:53;1.73;;;1.73;;
34928;SDS011;21133;48.048;7.724;2024-03-23T06:23:19;1.43;;;1.43;;
34928;SDS011;21133;48.048;7.724;2024-03-23T06:25:45;0.57;;;0.57;;
34928;SDS011;21133;48.048;7.724;2024-03-23T06:28:11;0.60;;;0.60;;
34928;SDS011;21133;48.048;7.724;2024-03-23T06:30:37;0.33;;;0.33;;
34928;SDS011;21133;48.048;7.724;2024-03-23T06:33:03;4.37;;;0.30;;
34928;SDS011;21133;48.048;7.724;2024-03-23T06:35:30;0.20;;;0.20;;
34928;SDS011;21133;48.048;7.724;2024-03-23T06:37:56;0.30;;;0.30;;
34928;SDS011;21133;48.048;7.724;2024-03-23T06:40:23;0.70;;;0.70;;
34928;SDS011;21133;48.048;7.724;2024-03-23T06:42:49;0.30;;;0.30;;
34928;SDS011;21133;48.048;7.724;2024-03-23T06:45:16;0.40;;;0.40;;
34928;SDS011;21133;48.048;7.724;2024-03-23T06:47:47;0.30;;;0.30;;
34928;SDS011;21133;48.048;7.724;2024-03-23T06:50:13;0.30;;;0.30;;
34928;SDS011;21133;48.048;7.724;2024-03-23T06:52:40;0.30;;;0.30;;
34928;SDS011;21133;48.048;7.724;2024-03-23T06:55:06;0.30;;;0.30;;
34928;SDS011;21133;48.048;7.724;2024-03-23T06:57:32;0.30;;;0.30;;
34928;SDS011;21133;48.048;7.724;2024-03-23T06:59:58;0.20;;;0.20;;
34928;SDS011;21133;48.048;7.724;2024-03-23T07:02:24;0.30;;;0.30;;
34928;SDS011;21133;48.048;7.724;2024-03-23T07:04:50;0.50;;;0.30;;
34928;SDS011;21133;48.048;7.724;2024-03-23T07:07:16;0.33;;;0.33;;
34928;SDS011;21133;48.048;7.724;2024-03-23T07:09:42;0.47;;;0.30;;
34928;SDS011;21133;48.048;7.724;2024-03-23T07:12:08;0.30;;;0.30;;
34928;SDS011;21133;48.048;7.724;2024-03-23T07:14:34;1.60;;;0.30;;
34928;SDS011;21133;48.048;7.724;2024-03-23T07:16:59;0.33;;;0.33;;
34928;SDS011;21133;48.048;7.724;2024-03-23T07:19:25;0.20;;;0.20;;
34928;SDS011;21133;48.048;7.724;2024-03-23T07:21:52;0.30;;;0.30;;
34928;SDS011;21133;48.048;7.724;2024-03-23T07:24:18;0.30;;;0.30;;
34928;SDS011;21133;48.048;7.724;2024-03-23T07:26:44;0.30;;;0.30;;
34928;SDS011;21133;48.048;7.724;2024-03-23T07:29:10;0.47;;;0.30;;
34928;SDS011;21133;48.048;7.724;2024-03-23T07:31:36;0.30;;;0.30;;
34928;SDS011;21133;48.048;7.724;2024-03-23T07:34:03;0.27;;;0.27;;
34928;SDS011;21133;48.048;7.724;2024-03-23T07:36:30;0.60;;;0.33;;
34928;SDS011;21133;48.048;7.724;2024-03-23T07:38:56;0.30;;;0.30;;
34928;SDS011;21133;48.048;7.724;2024-03-23T07:41:22;0.63;;;0.40;;
34928;SDS011;21133;48.048;7.724;2024-03-23T07:43:48;0.30;;;0.30;;
34928;SDS011;21133;48.048;7.724;2024-03-23T07:46:15;0.30;;;0.30;;
34928;SDS011;21133;48.048;7.724;2024-03-23T07:48:41;0.40;;;0.40;;
34928;SDS011;21133;48.048;7.724;2024-03-23T07:51:08;0.30;;;0.30;;
34928;SDS011;21133;48.048;7.724;2024-03-23T07:53:35;0.30;;;0.30;;
34928;SDS011;21133;48.048;7.724;2024-03-23T07:56:11;0.30;;;0.30;;
34928;SDS011;21133;48.048;7.724;2024-03-23T07:58:37;2.13;;;0.37;;
34928;SDS011;21133;48.048;7.724;2024-03-23T08:01:06;1.47;;;0.80;;
34928;SDS011;21133;48.048;7.724;2024-03-23T08:03:35;0.83;;;0.80;;
34928;SDS011;21133;48.048;7.724;2024-03-23T08:08:34;3.60;;;1.07;;
34928;SDS011;21133;48.048;7.724;2024-03-23T08:11:00;0.70;;;0.70;;
34928;SDS011;21133;48.048;7.724;2024-03-23T08:13:26;1.20;;;1.20;;
34928;SDS011;21133;48.048;7.724;2024-03-23T08:15:55;2.80;;;1.00;;
34928;SDS011;21133;48.048;7.724;2024-03-23T08:18:22;1.13;;;1.13;;
34928;SDS011;21133;48.048;7.724;2024-03-23T08:20:54;1.43;;;1.33;;
34928;SDS011;21133;48.048;7.724;2024-03-23T08:23:21;4.97;;;1.30;;
34928;SDS011;21133;48.048;7.724;2024-03-23T08:25:47;3.63;;;1.10;;
34928;SDS011;21133;48.048;7.724;2024-03-23T08:28:12;1.77;;;1.60;;
34928;SDS011;21133;48.048;7.724;2024-03-23T08:30:38;1.20;;;0.80;;
34928;SDS011;21133;48.048;7.724;2024-03-23T08:33:04;2.10;;;1.17;;
34928;SDS011;21133;48.048;7.724;2024-03-23T08:35:30;6.63;;;1.60;;
34928;SDS011;21133;48.048;7.724;2024-03-23T08:37:56;1.50;;;1.40;;
34928;SDS011;21133;48.048;7.724;2024-03-23T08:40:22;2.53;;;1.80;;
34928;SDS011;21133;48.048;7.724;2024-03-23T08:42:48;2.17;;;1.58;;
34928;SDS011;21133;48.048;7.724;2024-03-23T08:45:14;1.67;;;1.50;;
34928;SDS011;21133;48.048;7.724;2024-03-23T08:47:40;1.93;;;1.83;;
34928;SDS011;21133;48.048;7.724;2024-03-23T08:50:06;3.37;;;1.30;;
34928;SDS011;21133;48.048;7.724;2024-03-23T08:52:32;1.30;;;1.20;;
34928;SDS011;21133;48.048;7.724;2024-03-23T08:54:58;6.77;;;2.43;;
34928;SDS011;21133;48.048;7.724;2024-03-23T08:57:24;6.97;;;1.80;;
34928;SDS011;21133;48.048;7.724;2024-03-23T08:59:52;3.40;;;1.93;;
34928;SDS011;21133;48.048;7.724;2024-03-23T09:02:18;5.37;;;1.90;;
34928;SDS011;21133;48.048;7.724;2024-03-23T09:04:44;5.40;;;1.60;;
34928;SDS011;21133;48.048;7.724;2024-03-23T09:07:10;2.50;;;1.87;;
34928;SDS011;21133;48.048;7.724;2024-03-23T09:09:39;2.93;;;1.30;;
34928;SDS011;21133;48.048;7.724;2024-03-23T09:12:06;4.10;;;1.80;;
34928;SDS011;21133;48.048;7.724;2024-03-23T09:14:33;7.13;;;3.23;;
34928;SDS011;21133;48.048;7.724;2024-03-23T09:16:59;2.00;;;1.30;;
34928;SDS011;21133;48.048;7.724;2024-03-23T09:19:27;3.27;;;1.33;;
34928;SDS011;21133;48.048;7.724;2024-03-23T09:21:53;1.57;;;1.50;;
34928;SDS011;21133;48.048;7.724;2024-03-23T09:24:18;2.47;;;1.87;;
34928;SDS011;21133;48.048;7.724;2024-03-23T09:26:44;1.33;;;1.00;;
34928;SDS011;21133;48.048;7.724;2024-03-23T09:29:10;2.80;;;1.73;;
34928;SDS011;21133;48.048;7.724;2024-03-23T09:31:36;2.00;;;1.60;;
34928;SDS011;21133;48.048;7.724;2024-03-23T09:34:03;8.13;;;1.20;;
34928;SDS011;21133;48.048;7.724;2024-03-23T09:36:29;3.20;;;1.53;;
34928;SDS011;21133;48.048;7.724;2024-03-23T09:38:55;2.73;;;1.60;;
34928;SDS011;21133;48.048;7.724;2024-03-23T09:41:21;2.47;;;1.50;;
34928;SDS011;21133;48.048;7.724;2024-03-23T09:43:47;2.77;;;1.07;;
34928;SDS011;21133;48.048;7.724;2024-03-23T09:46:14;2.37;;;1.43;;
34928;SDS011;21133;48.048;7.724;2024-03-23T09:48:41;1.80;;;1.70;;
34928;SDS011;21133;48.048;7.724;2024-03-23T09:51:08;1.80;;;1.57;;
34928;SDS011;21133;48.048;7.724;2024-03-23T09:53:34;1.80;;;1.53;;
34928;SDS011;21133;48.048;7.724;2024-03-23T09:56:00;2.10;;;1.30;;
34928;SDS011;21133;48.048;7.724;2024-03-23T09:58:26;5.43;;;1.63;;
34928;SDS011;21133;48.048;7.724;2024-03-23T10:00:52;4.63;;;1.37;;
34928;SDS011;21133;48.048;7.724;2024-03-23T10:03:18;3.40;;;1.63;;
34928;SDS011;21133;48.048;7.724;2024-03-23T10:05:44;1.47;;;1.00;;
34928;SDS011;21133;48.048;7.724;2024-03-23T10:10:40;1.50;;;1.03;;
34928;SDS011;21133;48.048;7.724;2024-03-23T10:13:06;1.93;;;1.63;;
34928;SDS011;21133;48.048;7.724;2024-03-23T10:15:33;3.80;;;1.60;;
34928;SDS011;21133;48.048;7.724;2024-03-23T10:18:04;1.47;;;1.30;;
34928;SDS011;21133;48.048;7.724;2024-03-23T10:20:43;2.30;;;1.03;;
34928;SDS011;21133;48.048;7.724;2024-03-23T10:23:18;0.70;;;0.70;;
34928;SDS011;21133;48.048;7.724;2024-03-23T10:25:44;0.73;;;0.60;;
34928;SDS011;21133;48.048;7.724;2024-03-23T10:28:11;3.07;;;0.87;;
34928;SDS011;21133;48.048;7.724;2024-03-23T10:30:37;0.57;;;0.50;;
34928;SDS011;21133;48.048;7.724;2024-03-23T10:33:06;0.63;;;0.60;;
34928;SDS011;21133;48.048;7.724;2024-03-23T10:35:32;0.40;;;0.40;;
34928;SDS011;21133;48.048;7.724;2024-03-23T10:37:59;0.80;;;0.80;;
34928;SDS011;21133;48.048;7.724;2024-03-23T10:40:25;0.70;;;0.70;;
34928;SDS011;21133;48.048;7.724;2024-03-23T10:42:52;2.40;;;0.93;;
34928;SDS011;21133;48.048;7.724;2024-03-23T10:45:18;1.13;;;0.90;;
34928;SDS011;21133;48.048;7.724;2024-03-23T10:47:44;2.13;;;0.60;;
34928;SDS011;21133;48.048;7.724;2024-03-23T10:50:10;0.70;;;0.70;;
34928;SDS011;21133;48.048;7.724;2024-03-23T10:52:36;0.53;;;0.53;;
34928;SDS011;21133;48.048;7.724;2024-03-23T10:55:03;1.07;;;0.70;;
34928;SDS011;21133;48.048;7.724;2024-03-23T10:57:39;4.03;;;0.90;;
34928;SDS011;21133;48.048;7.724;2024-03-23T11:00:06;5.73;;;0.57;;
34928;SDS011;21133;48.048;7.724;2024-03-23T11:02:32;0.97;;;0.97;;
34928;SDS011;21133;48.048;7.724;2024-03-23T11:04:58;1.20;;;0.90;;
34928;SDS011;21133;48.048;7.724;2024-03-23T11:09:50;1.10;;;1.10;;
34928;SDS011;21133;48.048;7.724;2024-03-23T11:14:43;3.57;;;1.47;;
34928;SDS011;21133;48.048;7.724;2024-03-23T11:17:09;1.17;;;0.87;;
34928;SDS011;21133;48.048;7.724;2024-03-23T11:19:36;1.03;;;1.03;;
34928;SDS011;21133;48.048;7.724;2024-03-23T11:22:02;1.77;;;1.10;;
34928;SDS011;21133;48.048;7.724;2024-03-23T11:24:28;5.53;;;0.90;;
34928;SDS011;21133;48.048;7.724;2024-03-23T11:26:54;3.80;;;1.20;;
34928;SDS011;21133;48.048;7.724;2024-03-23T11:29:20;3.03;;;1.13;;
34928;SDS011;21133;48.048;7.724;2024-03-23T11:34:12;3.57;;;1.10;;
34928;SDS011;21133;48.048;7.724;2024-03-23T11:36:38;1.50;;;1.40;;
34928;SDS011;21133;48.048;7.724;2024-03-23T11:39:11;3.87;;;1.10;;
34928;SDS011;21133;48.048;7.724;2024-03-23T11:41:44;2.83;;;1.20;;
34928;SDS011;21133;48.048;7.724;2024-03-23T11:44:23;2.83;;;1.00;;
34928;SDS011;21133;48.048;7.724;2024-03-23T11:46:50;1.77;;;1.13;;
34928;SDS011;21133;48.048;7.724;2024-03-23T11:49:26;2.57;;;0.97;;
34928;SDS011;21133;48.048;7.724;2024-03-23T11:51:53;4.60;;;2.20;;
34928;SDS011;21133;48.048;7.724;2024-03-23T11:54:20;0.70;;;0.70;;
34928;SDS011;21133;48.048;7.724;2024-03-23T11:57:03;1.37;;;1.00;;
34928;SDS011;21133;48.048;7.724;2024-03-23T12:02:33;3.80;;;0.90;;
34928;SDS011;21133;48.048;7.724;2024-03-23T12:05:13;1.57;;;1.47;;
34928;SDS011;21133;48.048;7.724;2024-03-23T12:07:39;2.97;;;1.50;;
34928;SDS011;21133;48.048;7.724;2024-03-23T12:10:05;4.30;;;1.57;;
34928;SDS011;21133;48.048;7.724;2024-03-23T12:12:31;1.53;;;1.00;;
34928;SDS011;21133;48.048;7.724;2024-03-23T12:15:04;0.87;;;0.87;;
34928;SDS011;21133;48.048;7.724;2024-03-23T12:17:31;0.80;;;0.80;;
34928;SDS011;21133;48.048;7.724;2024-03-23T12:19:57;4.70;;;0.80;;
34928;SDS011;21133;48.048;7.724;2024-03-23T12:22:23;5.20;;;2.00;;
34928;SDS011;21133;48.048;7.724;2024-03-23T12:24:49;6.53;;;1.00;;
34928;SDS011;21133;48.048;7.724;2024-03-23T12:27:15;4.73;;;0.93;;
34928;SDS011;21133;48.048;7.724;2024-03-23T12:29:42;1.97;;;1.20;;
34928;SDS011;21133;48.048;7.724;2024-03-23T12:32:12;0.97;;;0.70;;
34928;SDS011;21133;48.048;7.724;2024-03-23T12:34:38;2.53;;;2.33;;
34928;SDS011;21133;48.048;7.724;2024-03-23T12:37:04;2.30;;;1.50;;
34928;SDS011;21133;48.048;7.724;2024-03-23T12:39:34;6.90;;;5.50;;
34928;SDS011;21133;48.048;7.724;2024-03-23T12:42:00;4.17;;;2.90;;
34928;SDS011;21133;48.048;7.724;2024-03-23T12:44:27;6.00;;;0.80;;
34928;SDS011;21133;48.048;7.724;2024-03-23T12:46:53;4.47;;;0.80;;
34928;SDS011;21133;48.048;7.724;2024-03-23T12:49:19;3.37;;;1.13;;
34928;SDS011;21133;48.048;7.724;2024-03-23T12:51:47;3.43;;;1.03;;
34928;SDS011;21133;48.048;7.724;2024-03-23T12:54:13;1.20;;;1.10;;
34928;SDS011;21133;48.048;7.724;2024-03-23T12:56:39;2.40;;;1.00;;
34928;SDS011;21133;48.048;7.724;2024-03-23T12:59:05;0.97;;;0.60;;
34928;SDS011;21133;48.048;7.724;2024-03-23T13:01:32;1.70;;;1.30;;
34928;SDS011;21133;48.048;7.724;2024-03-23T13:03:58;1.60;;;1.50;;
34928;SDS011;21133;48.048;7.724;2024-03-23T13:06:25;1.77;;;1.50;;
34928;SDS011;21133;48.048;7.724;2024-03-23T13:08:52;4.73;;;1.40;;
34928;SDS011;21133;48.048;7.724;2024-03-23T13:11:19;4.43;;;3.13;;
34928;SDS011;21133;48.048;7.724;2024-03-23T13:13:45;1.23;;;1.00;;
34928;SDS011;21133;48.048;7.724;2024-03-23T13:16:11;1.10;;;1.10;;
34928;SDS011;21133;48.048;7.724;2024-03-23T13:18:37;1.10;;;1.10;;
34928;SDS011;21133;48.048;7.724;2024-03-23T13:21:03;1.10;;;1.00;;
34928;SDS011;21133;48.048;7.724;2024-03-23T13:23:29;7.33;;;1.63;;
34928;SDS011;21133;48.048;7.724;2024-03-23T13:25:56;4.57;;;0.80;;
34928;SDS011;21133;48.048;7.724;2024-03-23T13:28:22;1.67;;;1.23;;
34928;SDS011;21133;48.048;7.724;2024-03-23T13:30:55;0.90;;;0.70;;
34928;SDS011;21133;48.048;7.724;2024-03-23T13:33:21;1.30;;;1.20;;
34928;SDS011;21133;48.048;7.724;2024-03-23T13:35:53;3.33;;;0.93;;
34928;SDS011;21133;48.048;7.724;2024-03-23T13:38:22;7.20;;;1.53;;
34928;SDS011;21133;48.048;7.724;2024-03-23T13:40:52;1.33;;;0.67;;
34928;SDS011;21133;48.048;7.724;2024-03-23T13:43:18;5.43;;;1.27;;
34928;SDS011;21133;48.048;7.724;2024-03-23T13:45:44;4.10;;;1.10;;
34928;SDS011;21133;48.048;7.724;2024-03-23T13:48:11;0.70;;;0.70;;
34928;SDS011;21133;48.048;7.724;2024-03-23T13:50:37;2.90;;;1.10;;
34928;SDS011;21133;48.048;7.724;2024-03-23T13:53:03;1.40;;;0.80;;
34928;SDS011;21133;48.048;7.724;2024-03-23T13:55:29;1.17;;;0.70;;
34928;SDS011;21133;48.048;7.724;2024-03-23T13:57:55;4.83;;;1.30;;
34928;SDS011;21133;48.048;7.724;2024-03-23T14:00:21;0.87;;;0.63;;
34928;SDS011;21133;48.048;7.724;2024-03-23T14:02:47;1.83;;;0.73;;
34928;SDS011;21133;48.048;7.724;2024-03-23T14:05:13;2.87;;;1.43;;
34928;SDS011;21133;48.048;7.724;2024-03-23T14:07:39;1.70;;;1.20;;
34928;SDS011;21133;48.048;7.724;2024-03-23T14:10:05;1.40;;;1.00;;
34928;SDS011;21133;48.048;7.724;2024-03-23T14:12:32;3.10;;;0.60;;
34928;SDS011;21133;48.048;7.724;2024-03-23T14:14:58;3.83;;;0.90;;
34928;SDS011;21133;48.048;7.724;2024-03-23T14:17:24;1.03;;;0.87;;
34928;SDS011;21133;48.048;7.724;2024-03-23T14:19:51;0.60;;;0.60;;
34928;SDS011;21133;48.048;7.724;2024-03-23T14:22:17;1.07;;;1.07;;
34928;SDS011;21133;48.048;7.724;2024-03-23T14:24:50;0.80;;;0.80;;
34928;SDS011;21133;48.048;7.724;2024-03-23T14:27:16;0.40;;;0.40;;
34928;SDS011;21133;48.048;7.724;2024-03-23T14:29:45;0.87;;;0.60;;
34928;SDS011;21133;48.048;7.724;2024-03-23T14:32:11;2.00;;;0.70;;
34928;SDS011;21133;48.048;7.724;2024-03-23T14:34:37;6.70;;;0.80;;
34928;SDS011;21133;48.048;7.724;2024-03-23T14:37:03;1.70;;;0.70;;
34928;SDS011;21133;48.048;7.724;2024-03-23T14:39:31;0.90;;;0.50;;
34928;SDS011;21133;48.048;7.724;2024-03-23T14:41:59;1.97;;;0.67;;
34928;SDS011;21133;48.048;7.724;2024-03-23T14:44:25;2.50;;;0.83;;
34928;SDS011;21133;48.048;7.724;2024-03-23T14:46:51;2.50;;;0.67;;
34928;SDS011;21133;48.048;7.724;2024-03-23T14:49:17;0.57;;;0.57;;
34928;SDS011;21133;48.048;7.724;2024-03-23T14:51:43;0.83;;;0.83;;
34928;SDS011;21133;48.048;7.724;2024-03-23T14:54:09;1.90;;;1.03;;
34928;SDS011;21133;48.048;7.724;2024-03-23T14:56:35;0.87;;;0.70;;
34928;SDS011;21133;48.048;7.724;2024-03-23T14:59:02;1.53;;;0.60;;
34928;SDS011;21133;48.048;7.724;2024-03-23T15:01:28;0.73;;;0.73;;
34928;SDS011;21133;48.048;7.724;2024-03-23T15:03:54;1.40;;;0.67;;
34928;SDS011;21133;48.048;7.724;2024-03-23T15:06:20;2.47;;;0.83;;
34928;SDS011;21133;48.048;7.724;2024-03-23T15:08:45;1.80;;;0.70;;
34928;SDS011;21133;48.048;7.724;2024-03-23T15:11:11;0.93;;;0.57;;
34928;SDS011;21133;48.048;7.724;2024-03-23T15:13:38;1.27;;;1.17;;
34928;SDS011;21133;48.048;7.724;2024-03-23T15:16:04;0.57;;;0.50;;
34928;SDS011;21133;48.048;7.724;2024-03-23T15:18:31;2.00;;;1.00;;
34928;SDS011;21133;48.048;7.724;2024-03-23T15:20:58;0.40;;;0.40;;
34928;SDS011;21133;48.048;7.724;2024-03-23T15:23:27;0.50;;;0.50;;
34928;SDS011;21133;48.048;7.724;2024-03-23T15:26:00;2.40;;;1.00;;
34928;SDS011;21133;48.048;7.724;2024-03-23T15:28:27;0.60;;;0.60;;
34928;SDS011;21133;48.048;7.724;2024-03-23T15:31:06;0.60;;;0.60;;
34928;SDS011;21133;48.048;7.724;2024-03-23T15:33:32;1.43;;;0.73;;
34928;SDS011;21133;48.048;7.724;2024-03-23T15:36:01;0.43;;;0.43;;
34928;SDS011;21133;48.048;7.724;2024-03-23T15:38:28;0.60;;;0.60;;
34928;SDS011;21133;48.048;7.724;2024-03-23T15:40:57;1.00;;;0.97;;
34928;SDS011;21133;48.048;7.724;2024-03-23T15:43:23;1.00;;;1.00;;
34928;SDS011;21133;48.048;7.724;2024-03-23T15:45:55;3.10;;;3.00;;
34928;SDS011;21133;48.048;7.724;2024-03-23T15:48:21;2.07;;;1.97;;
34928;SDS011;21133;48.048;7.724;2024-03-23T15:50:51;1.60;;;1.60;;
34928;SDS011;21133;48.048;7.724;2024-03-23T15:53:20;1.80;;;1.80;;